createdAt,value
2019-05-21T00:00:45.510Z,17.10
2019-05-21T00:05:51.282Z,17.10
2019-05-21T00:10:58.048Z,17.00
2019-05-21T00:16:03.841Z,17.00
2019-05-21T00:21:09.316Z,16.90
2019-05-21T00:26:15.070Z,17.00
2019-05-21T00:31:56.081Z,16.90
2019-05-21T00:37:37.894Z,16.90
2019-05-21T00:42:45.940Z,16.80
2019-05-21T00:47:51.836Z,16.80
2019-05-21T00:52:56.882Z,16.70
2019-05-21T00:58:02.351Z,16.70
2019-05-21T01:03:08.344Z,16.70
2019-05-21T01:08:14.312Z,16.60
2019-05-21T01:13:20.229Z,16.60
2019-05-21T01:18:27.089Z,16.50
2019-05-21T01:23:33.278Z,16.50
2019-05-21T01:28:39.646Z,16.50
2019-05-21T01:33:45.462Z,16.50
2019-05-21T01:38:53.373Z,16.50
2019-05-21T01:43:59.061Z,16.50
2019-05-21T01:49:05.103Z,16.40
2019-05-21T01:54:11.154Z,16.40
2019-05-21T01:59:17.555Z,16.40
2019-05-21T02:04:24.213Z,16.40
2019-05-21T02:09:30.627Z,16.40
2019-05-21T02:14:36.280Z,16.40
2019-05-21T02:19:41.911Z,16.50
2019-05-21T02:24:48.791Z,16.50
2019-05-21T02:29:54.806Z,16.50
2019-05-21T02:35:00.523Z,16.40
2019-05-21T02:40:07.395Z,16.50
2019-05-21T02:45:17.806Z,16.40
2019-05-21T02:50:23.521Z,16.40
2019-05-21T02:55:29.213Z,16.40
2019-05-21T03:00:54.049Z,16.40
2019-05-21T03:06:12.990Z,16.40
2019-05-21T03:11:08.097Z,16.30
2019-05-21T03:16:14.318Z,16.30
2019-05-21T03:21:20.542Z,16.30
2019-05-21T03:26:26.017Z,16.30
2019-05-21T03:31:32.105Z,16.30
2019-05-21T03:36:37.620Z,16.30
2019-05-21T03:41:43.844Z,16.20
2019-05-21T03:46:49.703Z,16.20
2019-05-21T03:51:55.830Z,16.20
2019-05-21T03:57:01.256Z,16.30
2019-05-21T04:02:08.455Z,16.30
2019-05-21T04:07:13.357Z,16.30
2019-05-21T04:12:19.691Z,16.40
2019-05-21T04:17:50.362Z,16.40
2019-05-21T04:22:56.759Z,16.40
2019-05-21T04:28:01.634Z,16.40
2019-05-21T04:33:07.119Z,16.40
2019-05-21T04:38:13.512Z,16.40
2019-05-21T04:43:19.019Z,16.40
2019-05-21T04:48:25.475Z,16.40
2019-05-21T04:53:31.772Z,16.40
2019-05-21T04:58:38.255Z,16.40
2019-05-21T05:03:50.866Z,16.40
2019-05-21T05:08:56.870Z,16.40
2019-05-21T05:14:05.186Z,16.40
2019-05-21T05:19:10.825Z,16.40
2019-05-21T05:24:19.974Z,16.40
2019-05-21T05:29:27.122Z,16.40
2019-05-21T05:34:33.475Z,16.40
2019-05-21T05:39:39.106Z,16.40
2019-05-21T05:44:49.224Z,16.40
2019-05-21T05:49:57.305Z,16.30
2019-05-21T05:55:03.133Z,16.40
2019-05-21T06:00:11.178Z,16.30
2019-05-21T06:05:17.968Z,16.40
2019-05-21T06:10:24.958Z,16.40
2019-05-21T06:15:30.788Z,16.30
2019-05-21T06:20:37.051Z,16.30
2019-05-21T06:25:42.582Z,16.40
2019-05-21T06:30:49.408Z,16.40
2019-05-21T06:35:56.239Z,16.40
2019-05-21T06:41:02.301Z,16.30
2019-05-21T06:46:10.777Z,16.30
2019-05-21T06:51:17.201Z,16.20
2019-05-21T06:56:24.046Z,16.30
2019-05-21T07:01:30.578Z,16.30
2019-05-21T07:06:36.308Z,16.30
2019-05-21T07:11:41.974Z,16.40
2019-05-21T07:16:49.374Z,16.40
2019-05-21T07:22:11.604Z,16.40
2019-05-21T07:27:03.881Z,16.40
2019-05-21T07:32:10.141Z,16.40
2019-05-21T07:37:16.029Z,16.40
2019-05-21T07:42:23.275Z,16.40
2019-05-21T07:47:28.553Z,16.40
2019-05-21T07:52:34.020Z,16.30
2019-05-21T07:57:39.832Z,16.30
2019-05-21T08:02:46.071Z,16.40
2019-05-21T08:07:54.788Z,16.40
2019-05-21T08:13:02.275Z,16.30
2019-05-21T08:18:09.758Z,16.30
2019-05-21T08:23:15.616Z,16.30
2019-05-21T08:28:21.619Z,16.40
2019-05-21T08:33:28.087Z,16.40
2019-05-21T08:38:34.369Z,16.40
2019-05-21T08:43:40.163Z,16.30
2019-05-21T08:48:46.714Z,16.30
2019-05-21T08:53:51.773Z,16.30
2019-05-21T08:58:58.575Z,16.30
2019-05-21T09:04:04.455Z,16.30
2019-05-21T09:09:10.921Z,16.20
2019-05-21T09:14:18.062Z,16.20
2019-05-21T09:19:23.534Z,16.30
2019-05-21T09:24:30.442Z,16.20
2019-05-21T09:29:36.616Z,16.20
2019-05-21T09:34:48.827Z,16.20
2019-05-21T09:39:51.882Z,16.20
2019-05-21T09:45:00.296Z,16.20
2019-05-21T09:50:07.061Z,16.20
2019-05-21T09:55:13.277Z,16.20
2019-05-21T10:00:38.323Z,16.20
2019-05-21T10:05:46.579Z,16.10
2019-05-21T10:10:53.789Z,16.00
2019-05-21T10:16:01.358Z,16.00
2019-05-21T10:21:09.682Z,16.00
2019-05-21T10:26:15.077Z,16.00
2019-05-21T10:31:20.905Z,16.00
2019-05-21T10:36:27.551Z,16.00
2019-05-21T10:41:33.339Z,16.00
2019-05-21T10:46:39.703Z,16.00
2019-05-21T10:51:46.141Z,15.90
2019-05-21T10:56:53.133Z,15.90
2019-05-21T11:02:15.852Z,16.00
2019-05-21T11:07:23.158Z,16.00
2019-05-21T11:12:28.943Z,16.00
2019-05-21T11:17:50.004Z,16.00
2019-05-21T11:22:46.499Z,16.00
2019-05-21T11:27:53.715Z,16.00
2019-05-21T11:32:59.253Z,16.10
2019-05-21T11:38:05.430Z,16.10
2019-05-21T11:43:10.722Z,16.10
2019-05-21T11:48:18.687Z,16.10
2019-05-21T11:53:24.821Z,16.10
2019-05-21T11:58:30.304Z,16.10
2019-05-21T12:03:36.709Z,16.10
2019-05-21T12:08:55.531Z,16.20
2019-05-21T12:13:50.518Z,16.20
2019-05-21T12:22:09.497Z,16.20
2019-05-21T12:27:16.069Z,16.20
2019-05-21T12:32:21.762Z,16.20
2019-05-21T12:37:27.977Z,16.20
2019-05-21T12:42:35.018Z,16.20
2019-05-21T12:47:40.293Z,16.20
2019-05-21T12:52:45.950Z,16.20
2019-05-21T12:57:57.742Z,16.30
2019-05-21T13:03:03.540Z,16.30
2019-05-21T13:08:10.181Z,16.30
2019-05-21T13:13:18.296Z,16.40
2019-05-21T13:18:24.097Z,16.40
2019-05-21T13:23:30.382Z,16.40
2019-05-21T13:28:36.852Z,16.40
2019-05-21T13:33:43.215Z,16.40
2019-05-21T13:38:49.514Z,16.40
2019-05-21T13:43:54.725Z,16.40
2019-05-21T13:49:01.057Z,16.40
2019-05-21T13:54:08.049Z,16.50
2019-05-21T13:59:14.761Z,16.50
2019-05-21T14:04:21.108Z,16.40
2019-05-21T14:09:26.828Z,16.40
2019-05-21T14:14:33.875Z,16.40
2019-05-21T14:19:39.402Z,16.40
2019-05-21T14:24:45.146Z,16.40
2019-05-21T14:29:51.352Z,16.40
2019-05-21T14:35:01.287Z,16.50
2019-05-21T14:40:06.559Z,16.50
2019-05-21T14:45:13.266Z,16.50
2019-05-21T14:50:20.264Z,16.50
2019-05-21T14:55:27.197Z,16.50
2019-05-21T15:00:35.564Z,16.50
2019-05-21T15:05:41.596Z,16.50
2019-05-21T15:10:49.605Z,16.50
2019-05-21T15:15:56.936Z,16.40
2019-05-21T15:21:25.230Z,16.50
2019-05-21T15:26:31.269Z,16.50
2019-05-21T15:31:38.123Z,16.40
2019-05-21T15:36:44.415Z,16.40
2019-05-21T15:41:53.129Z,16.30
2019-05-21T15:46:59.969Z,16.30
2019-05-21T15:52:06.330Z,16.40
2019-05-21T15:57:12.980Z,16.30
2019-05-21T16:02:21.540Z,16.30
2019-05-21T16:07:28.291Z,16.20
2019-05-21T16:12:32.754Z,16.20
2019-05-21T16:17:38.966Z,16.20
2019-05-21T16:22:46.362Z,16.20
2019-05-21T16:28:04.555Z,16.10
2019-05-21T16:33:12.189Z,16.20
2019-05-21T16:38:17.953Z,16.20
2019-05-21T16:43:23.446Z,16.20
2019-05-21T16:52:53.309Z,16.20
2019-05-21T16:57:58.513Z,16.20
2019-05-21T17:03:04.454Z,16.20
2019-05-21T17:08:10.662Z,16.10
2019-05-21T17:13:17.402Z,16.10
2019-05-21T17:18:22.678Z,16.10
2019-05-21T17:23:28.806Z,16.10
2019-05-21T17:28:38.819Z,16.00
2019-05-21T17:33:44.826Z,16.00
2019-05-21T17:38:50.960Z,16.00
2019-05-21T17:43:56.607Z,15.90
2019-05-21T17:49:02.187Z,15.90
2019-05-21T17:54:07.986Z,15.90
2019-05-21T17:59:12.982Z,15.90
2019-05-21T18:04:20.087Z,15.80
2019-05-21T18:09:26.738Z,15.80
2019-05-21T18:14:32.564Z,15.80
2019-05-21T18:19:38.956Z,15.80
2019-05-21T18:24:48.616Z,15.80
2019-05-21T18:29:52.912Z,15.80
2019-05-21T18:34:59.231Z,15.80
2019-05-21T18:40:07.164Z,15.80
2019-05-21T18:45:14.146Z,15.80
2019-05-21T18:50:34.743Z,15.70
2019-05-21T18:55:29.993Z,15.70
2019-05-21T19:00:36.512Z,15.70
2019-05-21T19:05:42.961Z,15.70
2019-05-21T19:11:31.780Z,15.70
2019-05-21T19:16:37.775Z,15.70
2019-05-21T19:21:44.258Z,15.70
2019-05-21T19:26:50.424Z,15.70
2019-05-21T19:31:56.922Z,15.70
2019-05-21T19:37:02.625Z,15.60
2019-05-21T19:42:16.893Z,15.70
2019-05-21T19:47:23.203Z,15.70
2019-05-21T19:52:30.082Z,15.70
2019-05-21T19:57:36.369Z,15.60
2019-05-21T20:02:42.482Z,15.50
2019-05-21T20:07:49.288Z,15.60
2019-05-21T20:12:57.099Z,15.50
2019-05-21T20:18:07.550Z,15.40
2019-05-21T20:23:13.998Z,15.40
2019-05-21T20:28:20.190Z,15.40
2019-05-21T20:33:26.106Z,15.40
2019-05-21T20:38:33.942Z,15.40
2019-05-21T20:43:42.518Z,15.40
2019-05-21T20:48:49.126Z,15.40
2019-05-21T20:53:57.339Z,15.40
2019-05-21T20:59:04.686Z,15.40
2019-05-21T21:04:12.060Z,15.30
2019-05-21T21:09:18.805Z,15.20
2019-05-21T21:14:26.218Z,15.20
2019-05-21T21:19:33.210Z,15.20
2019-05-21T21:24:41.354Z,15.20
2019-05-21T21:29:47.407Z,15.20
2019-05-21T21:34:54.396Z,15.30
2019-05-21T21:40:01.601Z,15.30
2019-05-21T21:45:07.546Z,15.20
2019-05-21T21:50:15.163Z,15.20
2019-05-21T21:55:21.781Z,15.20
2019-05-21T22:01:10.662Z,15.20
2019-05-21T22:06:21.246Z,15.20
2019-05-21T22:11:28.260Z,15.20
2019-05-21T22:16:35.017Z,15.20
2019-05-21T22:21:42.516Z,15.20
2019-05-21T22:26:48.813Z,15.20
2019-05-21T22:31:54.219Z,15.10
2019-05-21T22:37:01.813Z,15.10
2019-05-21T22:42:08.061Z,15.10
2019-05-21T22:47:15.899Z,15.00
2019-05-21T22:52:23.121Z,15.00
2019-05-21T22:57:30.270Z,15.00
2019-05-21T23:02:38.545Z,15.00
2019-05-21T23:07:44.780Z,15.00
2019-05-21T23:12:51.118Z,15.00
2019-05-21T23:17:58.811Z,15.00
2019-05-21T23:23:05.248Z,15.00
2019-05-21T23:28:12.135Z,15.00
2019-05-21T23:33:20.098Z,15.00
2019-05-21T23:38:27.750Z,14.90
2019-05-21T23:43:34.001Z,15.00
2019-05-21T23:48:42.009Z,14.90
2019-05-21T23:53:47.932Z,14.90
2019-05-21T23:58:55.709Z,14.90
